createdAt,value
2022-07-29T00:04:39.991Z,4.30
2022-07-29T00:09:51.643Z,4.20
2022-07-29T00:14:56.788Z,3.67
2022-07-29T00:20:00.146Z,5.50
2022-07-29T00:25:03.564Z,4.53
2022-07-29T00:30:07.604Z,4.50
2022-07-29T00:35:30.325Z,4.93
2022-07-29T00:40:33.643Z,4.60
2022-07-29T00:45:37.183Z,4.67
2022-07-29T00:50:40.906Z,4.37
2022-07-29T00:55:44.220Z,4.80
2022-07-29T01:00:47.586Z,4.63
2022-07-29T01:05:51.973Z,4.57
2022-07-29T01:10:56.500Z,4.00
2022-07-29T01:16:06.019Z,4.20
2022-07-29T01:22:00.504Z,4.33
2022-07-29T01:27:03.665Z,4.17
2022-07-29T01:32:28.365Z,4.10
2022-07-29T01:37:52.005Z,4.43
2022-07-29T01:42:58.661Z,4.70
2022-07-29T01:48:19.745Z,4.40
2022-07-29T01:53:36.426Z,4.30
2022-07-29T01:58:43.481Z,5.30
2022-07-29T02:03:48.286Z,4.97
2022-07-29T02:08:54.358Z,4.63
2022-07-29T02:13:59.967Z,4.80
2022-07-29T02:19:04.526Z,5.00
2022-07-29T02:24:09.016Z,5.03
2022-07-29T02:29:15.764Z,4.27
2022-07-29T02:34:21.040Z,4.90
2022-07-29T02:39:27.465Z,4.67
2022-07-29T02:44:34.482Z,4.80
2022-07-29T02:49:42.486Z,4.53
2022-07-29T02:54:57.467Z,4.40
2022-07-29T03:00:07.620Z,4.97
2022-07-29T03:05:17.246Z,5.17
2022-07-29T03:10:21.005Z,4.83
2022-07-29T03:15:24.985Z,4.90
2022-07-29T03:20:28.445Z,5.37
2022-07-29T03:25:31.884Z,4.10
2022-07-29T03:30:35.537Z,4.97
2022-07-29T03:35:38.796Z,4.63
2022-07-29T03:40:50.198Z,4.60
2022-07-29T03:45:56.147Z,5.03
2022-07-29T03:50:59.451Z,5.20
2022-07-29T03:56:04.844Z,4.57
2022-07-29T04:01:08.548Z,5.93
2022-07-29T04:06:11.744Z,5.30
2022-07-29T04:11:15.227Z,4.53
2022-07-29T04:16:18.651Z,4.90
2022-07-29T04:21:22.084Z,4.93
2022-07-29T04:26:25.812Z,5.33
2022-07-29T04:31:29.433Z,4.87
2022-07-29T04:36:32.804Z,5.10
2022-07-29T04:41:36.022Z,4.60
2022-07-29T04:46:39.279Z,4.70
2022-07-29T04:51:42.580Z,3.67
2022-07-29T04:56:46.061Z,3.20
2022-07-29T05:01:49.501Z,2.97
2022-07-29T05:06:52.800Z,2.97
2022-07-29T05:11:56.020Z,3.00
2022-07-29T05:16:59.300Z,2.80
2022-07-29T05:22:02.455Z,2.60
2022-07-29T05:27:06.060Z,2.30
2022-07-29T05:32:09.841Z,3.50
2022-07-29T05:37:14.921Z,2.20
2022-07-29T05:42:18.222Z,2.30
2022-07-29T05:47:21.520Z,1.70
2022-07-29T05:52:24.862Z,1.90
2022-07-29T05:57:28.083Z,1.50
2022-07-29T06:02:32.053Z,1.48
2022-07-29T06:07:35.626Z,1.52
2022-07-29T06:12:40.798Z,1.35
2022-07-29T06:18:00.079Z,1.35
2022-07-29T06:23:11.170Z,1.77
2022-07-29T06:28:14.901Z,1.17
2022-07-29T06:33:20.262Z,1.48
2022-07-29T06:38:33.784Z,1.35
2022-07-29T06:43:42.640Z,1.30
2022-07-29T06:48:54.121Z,1.60
2022-07-29T06:54:02.958Z,1.63
2022-07-29T06:59:07.256Z,1.30
2022-07-29T07:04:11.501Z,1.30
2022-07-29T07:09:14.838Z,1.50
2022-07-29T07:14:18.695Z,1.15
2022-07-29T07:19:22.299Z,1.20
2022-07-29T07:24:25.383Z,0.70
2022-07-29T07:29:28.539Z,1.38
2022-07-29T07:34:32.959Z,1.00
2022-07-29T07:39:36.339Z,1.00
2022-07-29T07:45:03.758Z,1.17
2022-07-29T07:50:02.879Z,0.98
2022-07-29T07:55:06.622Z,1.23
2022-07-29T08:00:10.600Z,1.23
2022-07-29T08:05:18.317Z,1.20
2022-07-29T08:10:40.389Z,1.13
2022-07-29T08:15:44.636Z,1.10
2022-07-29T08:20:47.778Z,1.10
2022-07-29T08:25:51.573Z,1.00
2022-07-29T08:30:54.789Z,1.23
2022-07-29T08:35:58.099Z,1.40
2022-07-29T08:41:05.085Z,0.90
2022-07-29T08:46:08.569Z,0.73
2022-07-29T08:51:25.978Z,0.90
2022-07-29T08:56:29.819Z,1.15
2022-07-29T09:01:42.818Z,1.83
2022-07-29T09:06:52.845Z,1.45
2022-07-29T09:11:56.996Z,1.23
2022-07-29T09:17:01.397Z,1.00
2022-07-29T09:22:07.780Z,0.73
2022-07-29T09:27:31.199Z,1.25
2022-07-29T09:32:54.720Z,0.80
2022-07-29T09:37:58.119Z,0.90
2022-07-29T09:43:12.100Z,1.20
2022-07-29T09:48:17.326Z,0.88
2022-07-29T09:53:35.343Z,0.90
2022-07-29T09:58:38.920Z,0.88
2022-07-29T10:03:54.961Z,1.10
2022-07-29T10:09:12.520Z,1.13
2022-07-29T10:14:16.823Z,1.00
2022-07-29T10:19:20.143Z,0.82
2022-07-29T10:24:23.619Z,1.33
2022-07-29T10:29:27.175Z,0.93
2022-07-29T10:34:38.811Z,1.10
2022-07-29T10:40:29.262Z,0.88
2022-07-29T10:45:32.961Z,0.95
2022-07-29T10:51:05.128Z,1.15
2022-07-29T10:56:29.099Z,1.02
2022-07-29T11:01:37.045Z,0.90
2022-07-29T11:07:06.854Z,1.13
2022-07-29T11:12:38.877Z,1.20
2022-07-29T11:18:01.808Z,1.23
2022-07-29T11:23:25.779Z,0.98
2022-07-29T11:28:30.567Z,1.30
2022-07-29T11:33:37.437Z,0.90
2022-07-29T11:39:36.871Z,1.33
2022-07-29T11:45:08.502Z,1.10
2022-07-29T11:50:33.764Z,1.15
2022-07-29T11:55:50.898Z,0.90
2022-07-29T12:00:56.357Z,1.10
2022-07-29T12:05:59.800Z,0.90
2022-07-29T12:11:03.828Z,0.90
2022-07-29T12:16:07.095Z,1.05
2022-07-29T12:21:12.421Z,0.93
2022-07-29T12:26:25.521Z,1.05
2022-07-29T12:31:42.081Z,0.80
2022-07-29T12:36:47.575Z,0.98
2022-07-29T12:41:50.920Z,1.10
2022-07-29T12:47:12.342Z,1.30
2022-07-29T12:52:36.388Z,1.13
2022-07-29T12:57:54.025Z,1.38
2022-07-29T13:02:59.506Z,1.40
2022-07-29T13:08:31.849Z,1.25
2022-07-29T13:13:34.925Z,1.45
2022-07-29T13:18:38.204Z,1.00
2022-07-29T13:23:41.619Z,1.15
2022-07-29T13:28:44.864Z,1.10
2022-07-29T13:33:49.381Z,0.93
2022-07-29T13:38:52.722Z,1.00
2022-07-29T13:43:56.077Z,1.95
2022-07-29T13:48:59.425Z,1.05
2022-07-29T13:54:02.769Z,1.00
2022-07-29T13:59:05.922Z,0.90
2022-07-29T14:04:09.739Z,1.30
2022-07-29T14:09:15.534Z,0.95
2022-07-29T14:14:18.838Z,0.98
2022-07-29T14:19:23.653Z,0.90
2022-07-29T14:24:27.464Z,1.10
2022-07-29T14:29:37.007Z,0.98
2022-07-29T14:34:41.220Z,1.25
2022-07-29T14:39:44.501Z,1.10
2022-07-29T14:44:49.382Z,1.08
2022-07-29T14:49:52.602Z,1.20
2022-07-29T14:54:55.721Z,1.00
2022-07-29T14:59:58.721Z,0.90
2022-07-29T15:05:02.411Z,1.45
2022-07-29T15:10:05.961Z,0.90
2022-07-29T15:15:11.681Z,1.50
2022-07-29T15:20:15.161Z,1.10
2022-07-29T15:25:19.007Z,0.90
2022-07-29T15:30:31.488Z,1.00
2022-07-29T15:35:40.926Z,1.10
2022-07-29T15:40:45.022Z,0.70
2022-07-29T15:46:06.979Z,1.27
2022-07-29T15:51:10.386Z,0.90
2022-07-29T15:56:15.383Z,0.90
2022-07-29T16:01:19.085Z,0.90
2022-07-29T16:06:22.900Z,1.05
2022-07-29T16:11:26.139Z,0.90
2022-07-29T16:16:29.786Z,0.80
2022-07-29T16:21:34.240Z,0.93
2022-07-29T16:26:37.960Z,0.90
2022-07-29T16:31:41.748Z,0.82
2022-07-29T16:36:47.822Z,0.90
2022-07-29T16:41:55.917Z,0.88
2022-07-29T16:47:09.539Z,1.02
2022-07-29T16:52:13.442Z,1.15
2022-07-29T16:57:16.880Z,0.68
2022-07-29T17:02:20.819Z,0.95
2022-07-29T17:07:26.680Z,0.82
2022-07-29T17:12:30.800Z,1.00
2022-07-29T17:17:55.280Z,1.50
2022-07-29T17:23:06.500Z,2.30
2022-07-29T17:28:10.291Z,0.95
2022-07-29T17:33:21.402Z,1.80
2022-07-29T17:38:40.234Z,3.10
2022-07-29T17:44:05.001Z,1.58
2022-07-29T17:49:08.636Z,1.75
2022-07-29T17:54:11.961Z,0.80
2022-07-29T17:59:15.365Z,1.05
2022-07-29T18:04:21.440Z,0.80
2022-07-29T18:09:24.543Z,0.60
2022-07-29T18:14:29.420Z,0.90
2022-07-29T18:19:32.421Z,1.30
2022-07-29T18:24:36.361Z,1.48
2022-07-29T18:29:40.881Z,1.15
2022-07-29T18:34:44.922Z,1.05
2022-07-29T18:39:48.561Z,0.90
2022-07-29T18:44:52.060Z,0.90
2022-07-29T18:49:55.442Z,0.80
2022-07-29T18:54:58.782Z,1.13
2022-07-29T19:00:02.160Z,0.90
2022-07-29T19:05:10.701Z,0.98
2022-07-29T19:10:14.559Z,1.35
2022-07-29T19:15:20.517Z,1.00
2022-07-29T19:20:25.324Z,0.90
2022-07-29T19:25:53.833Z,1.60
2022-07-29T19:31:03.648Z,2.03
2022-07-29T19:36:14.261Z,1.60
2022-07-29T19:41:17.937Z,1.65
2022-07-29T19:46:24.716Z,1.80
2022-07-29T19:51:29.199Z,1.30
2022-07-29T19:56:32.860Z,1.20
2022-07-29T20:01:38.387Z,1.42
2022-07-29T20:06:51.130Z,1.38
2022-07-29T20:12:02.571Z,1.17
2022-07-29T20:17:05.999Z,1.10
2022-07-29T20:22:13.719Z,1.13
2022-07-29T20:27:28.540Z,1.10
2022-07-29T20:32:36.938Z,1.08
2022-07-29T20:37:52.034Z,0.90
2022-07-29T20:43:04.127Z,0.82
2022-07-29T20:48:21.010Z,1.02
2022-07-29T20:53:31.530Z,1.02
2022-07-29T20:58:52.941Z,1.10
2022-07-29T21:04:15.428Z,1.10
2022-07-29T21:09:21.357Z,1.20
2022-07-29T21:14:42.681Z,1.27
2022-07-29T21:19:57.528Z,1.15
2022-07-29T21:25:18.805Z,1.25
2022-07-29T21:30:35.917Z,1.40
2022-07-29T21:36:20.283Z,1.60
2022-07-29T21:41:18.046Z,1.50
2022-07-29T21:46:24.392Z,1.27
2022-07-29T21:51:31.707Z,1.10
2022-07-29T21:56:42.435Z,1.33
2022-07-29T22:02:03.577Z,1.33
2022-07-29T22:07:08.057Z,1.60
2022-07-29T22:12:12.138Z,1.53
2022-07-29T22:17:15.528Z,1.57
2022-07-29T22:22:26.248Z,1.40
2022-07-29T22:27:29.568Z,1.70
2022-07-29T22:32:38.638Z,1.67
2022-07-29T22:38:38.944Z,1.40
2022-07-29T22:43:42.667Z,1.60
2022-07-29T22:48:46.381Z,1.63
2022-07-29T22:53:49.799Z,1.57
2022-07-29T22:58:56.068Z,1.90
2022-07-29T23:03:59.298Z,1.80
2022-07-29T23:09:03.338Z,2.07
2022-07-29T23:14:06.736Z,1.80
2022-07-29T23:19:13.158Z,1.93
2022-07-29T23:24:16.421Z,2.30
2022-07-29T23:29:20.096Z,1.90
2022-07-29T23:34:23.797Z,2.13
2022-07-29T23:39:27.368Z,1.80
2022-07-29T23:44:30.658Z,1.90
2022-07-29T23:49:34.257Z,1.70
2022-07-29T23:54:37.488Z,1.53
2022-07-29T23:59:40.817Z,1.97
